sensor_id;sensor_type;location;lat;lon;timestamp;P1;durP1;ratioP1;P2;durP2;ratioP2
51738;SDS011;37815;52.692;6.226;2023-04-15T00:04:01;4.30;;;2.35;;
51738;SDS011;37815;52.692;6.226;2023-04-15T00:09:02;2.35;;;1.80;;
51738;SDS011;37815;52.692;6.226;2023-04-15T00:14:02;3.28;;;1.80;;
51738;SDS011;37815;52.692;6.226;2023-04-15T00:19:03;5.00;;;2.20;;
51738;SDS011;37815;52.692;6.226;2023-04-15T00:24:04;2.78;;;2.08;;
51738;SDS011;37815;52.692;6.226;2023-04-15T00:29:04;5.50;;;2.50;;
51738;SDS011;37815;52.692;6.226;2023-04-15T00:34:05;5.43;;;2.20;;
51738;SDS011;37815;52.692;6.226;2023-04-15T00:39:06;5.25;;;1.95;;
51738;SDS011;37815;52.692;6.226;2023-04-15T00:44:07;3.50;;;2.13;;
51738;SDS011;37815;52.692;6.226;2023-04-15T00:49:08;2.20;;;1.77;;
51738;SDS011;37815;52.692;6.226;2023-04-15T00:54:08;3.10;;;2.10;;
51738;SDS011;37815;52.692;6.226;2023-04-15T00:59:10;4.43;;;2.30;;
51738;SDS011;37815;52.692;6.226;2023-04-15T01:04:11;2.95;;;2.10;;
51738;SDS011;37815;52.692;6.226;2023-04-15T01:09:12;3.08;;;2.03;;
51738;SDS011;37815;52.692;6.226;2023-04-15T01:14:12;5.28;;;2.15;;
51738;SDS011;37815;52.692;6.226;2023-04-15T01:19:13;3.90;;;1.92;;
51738;SDS011;37815;52.692;6.226;2023-04-15T01:24:17;3.47;;;2.00;;
51738;SDS011;37815;52.692;6.226;2023-04-15T01:29:18;4.25;;;2.10;;
51738;SDS011;37815;52.692;6.226;2023-04-15T01:34:18;3.90;;;2.30;;
51738;SDS011;37815;52.692;6.226;2023-04-15T01:39:19;2.30;;;1.75;;
51738;SDS011;37815;52.692;6.226;2023-04-15T01:44:20;4.25;;;2.17;;
51738;SDS011;37815;52.692;6.226;2023-04-15T01:49:21;2.58;;;1.92;;
51738;SDS011;37815;52.692;6.226;2023-04-15T01:54:22;2.95;;;2.03;;
51738;SDS011;37815;52.692;6.226;2023-04-15T01:59:22;3.28;;;2.10;;
51738;SDS011;37815;52.692;6.226;2023-04-15T02:04:23;3.55;;;1.85;;
51738;SDS011;37815;52.692;6.226;2023-04-15T02:09:24;3.60;;;1.95;;
51738;SDS011;37815;52.692;6.226;2023-04-15T02:14:24;4.10;;;2.00;;
51738;SDS011;37815;52.692;6.226;2023-04-15T02:19:25;2.15;;;1.75;;
51738;SDS011;37815;52.692;6.226;2023-04-15T02:24:26;3.78;;;1.85;;
51738;SDS011;37815;52.692;6.226;2023-04-15T02:29:27;3.35;;;1.95;;
51738;SDS011;37815;52.692;6.226;2023-04-15T02:34:28;4.13;;;2.05;;
51738;SDS011;37815;52.692;6.226;2023-04-15T02:39:28;6.18;;;2.35;;
51738;SDS011;37815;52.692;6.226;2023-04-15T02:44:29;3.25;;;2.20;;
51738;SDS011;37815;52.692;6.226;2023-04-15T02:49:31;2.83;;;1.92;;
51738;SDS011;37815;52.692;6.226;2023-04-15T02:54:32;4.38;;;2.20;;
51738;SDS011;37815;52.692;6.226;2023-04-15T02:59:33;3.63;;;2.28;;
51738;SDS011;37815;52.692;6.226;2023-04-15T03:04:33;2.83;;;2.20;;
51738;SDS011;37815;52.692;6.226;2023-04-15T03:09:34;5.00;;;2.35;;
51738;SDS011;37815;52.692;6.226;2023-04-15T03:14:35;3.95;;;2.10;;
51738;SDS011;37815;52.692;6.226;2023-04-15T03:19:36;3.90;;;2.30;;
51738;SDS011;37815;52.692;6.226;2023-04-15T03:24:36;7.07;;;2.70;;
51738;SDS011;37815;52.692;6.226;2023-04-15T03:29:37;3.10;;;2.25;;
51738;SDS011;37815;52.692;6.226;2023-04-15T03:34:37;4.78;;;2.25;;
51738;SDS011;37815;52.692;6.226;2023-04-15T03:39:38;4.28;;;2.40;;
51738;SDS011;37815;52.692;6.226;2023-04-15T03:44:38;4.03;;;2.10;;
51738;SDS011;37815;52.692;6.226;2023-04-15T03:49:39;6.47;;;2.05;;
51738;SDS011;37815;52.692;6.226;2023-04-15T03:54:41;4.15;;;2.22;;
51738;SDS011;37815;52.692;6.226;2023-04-15T03:59:41;4.35;;;2.65;;
51738;SDS011;37815;52.692;6.226;2023-04-15T04:04:42;2.95;;;2.10;;
51738;SDS011;37815;52.692;6.226;2023-04-15T04:09:42;3.75;;;2.00;;
51738;SDS011;37815;52.692;6.226;2023-04-15T04:14:43;3.20;;;2.08;;
51738;SDS011;37815;52.692;6.226;2023-04-15T04:19:45;3.63;;;2.58;;
51738;SDS011;37815;52.692;6.226;2023-04-15T04:24:46;3.35;;;1.98;;
51738;SDS011;37815;52.692;6.226;2023-04-15T04:29:47;5.70;;;2.35;;
51738;SDS011;37815;52.692;6.226;2023-04-15T04:34:48;3.97;;;2.30;;
51738;SDS011;37815;52.692;6.226;2023-04-15T04:39:49;4.20;;;2.45;;
51738;SDS011;37815;52.692;6.226;2023-04-15T04:44:50;4.43;;;2.22;;
51738;SDS011;37815;52.692;6.226;2023-04-15T04:49:50;4.13;;;2.35;;
51738;SDS011;37815;52.692;6.226;2023-04-15T04:54:51;3.63;;;2.25;;
51738;SDS011;37815;52.692;6.226;2023-04-15T04:59:51;4.65;;;2.70;;
51738;SDS011;37815;52.692;6.226;2023-04-15T05:04:52;4.22;;;2.30;;
51738;SDS011;37815;52.692;6.226;2023-04-15T05:09:53;5.15;;;2.67;;
51738;SDS011;37815;52.692;6.226;2023-04-15T05:14:54;5.40;;;2.88;;
51738;SDS011;37815;52.692;6.226;2023-04-15T05:19:54;4.43;;;2.70;;
51738;SDS011;37815;52.692;6.226;2023-04-15T05:24:55;3.63;;;2.35;;
51738;SDS011;37815;52.692;6.226;2023-04-15T05:29:55;4.60;;;2.70;;
51738;SDS011;37815;52.692;6.226;2023-04-15T05:34:56;3.95;;;2.25;;
51738;SDS011;37815;52.692;6.226;2023-04-15T05:39:56;5.25;;;2.30;;
51738;SDS011;37815;52.692;6.226;2023-04-15T05:44:57;3.55;;;2.38;;
51738;SDS011;37815;52.692;6.226;2023-04-15T05:49:58;4.00;;;2.40;;
51738;SDS011;37815;52.692;6.226;2023-04-15T05:54:58;4.78;;;2.53;;
51738;SDS011;37815;52.692;6.226;2023-04-15T05:59:59;4.60;;;2.85;;
51738;SDS011;37815;52.692;6.226;2023-04-15T06:04:59;5.07;;;2.78;;
51738;SDS011;37815;52.692;6.226;2023-04-15T06:10:00;5.07;;;2.47;;
51738;SDS011;37815;52.692;6.226;2023-04-15T06:15:01;5.15;;;2.55;;
51738;SDS011;37815;52.692;6.226;2023-04-15T06:20:03;4.10;;;2.55;;
51738;SDS011;37815;52.692;6.226;2023-04-15T06:25:04;5.75;;;2.22;;
51738;SDS011;37815;52.692;6.226;2023-04-15T06:30:07;4.95;;;2.65;;
51738;SDS011;37815;52.692;6.226;2023-04-15T06:35:08;4.03;;;2.40;;
51738;SDS011;37815;52.692;6.226;2023-04-15T06:40:09;3.63;;;2.50;;
51738;SDS011;37815;52.692;6.226;2023-04-15T06:45:10;3.97;;;2.42;;
51738;SDS011;37815;52.692;6.226;2023-04-15T06:50:11;3.40;;;2.22;;
51738;SDS011;37815;52.692;6.226;2023-04-15T06:55:11;5.13;;;3.10;;
51738;SDS011;37815;52.692;6.226;2023-04-15T07:00:12;3.80;;;2.25;;
51738;SDS011;37815;52.692;6.226;2023-04-15T07:05:13;5.05;;;2.55;;
51738;SDS011;37815;52.692;6.226;2023-04-15T07:10:13;3.42;;;2.20;;
51738;SDS011;37815;52.692;6.226;2023-04-15T07:15:15;3.22;;;2.25;;
51738;SDS011;37815;52.692;6.226;2023-04-15T07:20:15;3.80;;;2.20;;
51738;SDS011;37815;52.692;6.226;2023-04-15T07:25:16;6.25;;;2.30;;
51738;SDS011;37815;52.692;6.226;2023-04-15T07:30:17;3.25;;;1.90;;
51738;SDS011;37815;52.692;6.226;2023-04-15T07:35:18;3.30;;;1.98;;
51738;SDS011;37815;52.692;6.226;2023-04-15T07:40:20;4.05;;;2.08;;
51738;SDS011;37815;52.692;6.226;2023-04-15T07:45:21;2.50;;;1.83;;
51738;SDS011;37815;52.692;6.226;2023-04-15T07:50:22;5.65;;;2.00;;
51738;SDS011;37815;52.692;6.226;2023-04-15T07:55:23;4.07;;;2.22;;
51738;SDS011;37815;52.692;6.226;2023-04-15T08:00:24;4.55;;;1.98;;
51738;SDS011;37815;52.692;6.226;2023-04-15T08:05:25;3.35;;;1.85;;
51738;SDS011;37815;52.692;6.226;2023-04-15T08:10:27;3.90;;;1.85;;
51738;SDS011;37815;52.692;6.226;2023-04-15T08:15:28;9.38;;;4.03;;
51738;SDS011;37815;52.692;6.226;2023-04-15T08:20:29;6.68;;;4.07;;
51738;SDS011;37815;52.692;6.226;2023-04-15T08:25:29;9.38;;;3.85;;
51738;SDS011;37815;52.692;6.226;2023-04-15T08:30:30;7.78;;;3.47;;
51738;SDS011;37815;52.692;6.226;2023-04-15T08:35:31;7.03;;;3.75;;
51738;SDS011;37815;52.692;6.226;2023-04-15T08:40:35;7.45;;;3.80;;
51738;SDS011;37815;52.692;6.226;2023-04-15T08:45:41;8.52;;;4.45;;
51738;SDS011;37815;52.692;6.226;2023-04-15T08:50:43;9.13;;;3.30;;
51738;SDS011;37815;52.692;6.226;2023-04-15T08:55:45;6.85;;;3.58;;
51738;SDS011;37815;52.692;6.226;2023-04-15T09:00:51;5.45;;;2.60;;
51738;SDS011;37815;52.692;6.226;2023-04-15T09:05:52;6.85;;;3.40;;
51738;SDS011;37815;52.692;6.226;2023-04-15T09:10:53;4.43;;;2.72;;
51738;SDS011;37815;52.692;6.226;2023-04-15T09:15:54;7.63;;;2.80;;
51738;SDS011;37815;52.692;6.226;2023-04-15T09:21:10;4.90;;;2.50;;
51738;SDS011;37815;52.692;6.226;2023-04-15T09:26:13;5.30;;;2.72;;
51738;SDS011;37815;52.692;6.226;2023-04-15T09:31:16;8.88;;;3.72;;
51738;SDS011;37815;52.692;6.226;2023-04-15T09:36:28;6.80;;;3.03;;
51738;SDS011;37815;52.692;6.226;2023-04-15T09:41:29;4.90;;;3.40;;
51738;SDS011;37815;52.692;6.226;2023-04-15T09:46:45;8.68;;;3.05;;
51738;SDS011;37815;52.692;6.226;2023-04-15T09:51:46;7.13;;;2.90;;
51738;SDS011;37815;52.692;6.226;2023-04-15T09:56:46;4.15;;;2.22;;
51738;SDS011;37815;52.692;6.226;2023-04-15T10:01:47;5.88;;;2.63;;
51738;SDS011;37815;52.692;6.226;2023-04-15T10:06:48;2.85;;;1.50;;
51738;SDS011;37815;52.692;6.226;2023-04-15T10:11:49;3.08;;;1.45;;
51738;SDS011;37815;52.692;6.226;2023-04-15T10:16:51;6.22;;;2.70;;
51738;SDS011;37815;52.692;6.226;2023-04-15T10:21:55;4.32;;;2.13;;
51738;SDS011;37815;52.692;6.226;2023-04-15T10:26:57;2.80;;;1.88;;
51738;SDS011;37815;52.692;6.226;2023-04-15T10:31:59;4.78;;;1.85;;
51738;SDS011;37815;52.692;6.226;2023-04-15T10:37:01;6.25;;;2.13;;
51738;SDS011;37815;52.692;6.226;2023-04-15T10:42:06;4.00;;;1.90;;
51738;SDS011;37815;52.692;6.226;2023-04-15T10:47:10;2.60;;;1.70;;
51738;SDS011;37815;52.692;6.226;2023-04-15T10:52:13;2.47;;;1.20;;
51738;SDS011;37815;52.692;6.226;2023-04-15T10:57:20;3.78;;;1.70;;
51738;SDS011;37815;52.692;6.226;2023-04-15T11:02:23;3.67;;;1.67;;
51738;SDS011;37815;52.692;6.226;2023-04-15T11:12:49;3.03;;;1.30;;
51738;SDS011;37815;52.692;6.226;2023-04-15T11:17:56;1.98;;;1.00;;
51738;SDS011;37815;52.692;6.226;2023-04-15T11:22:57;3.25;;;0.90;;
51738;SDS011;37815;52.692;6.226;2023-04-15T11:27:59;2.92;;;0.73;;
51738;SDS011;37815;52.692;6.226;2023-04-15T11:33:02;2.17;;;0.80;;
51738;SDS011;37815;52.692;6.226;2023-04-15T11:38:13;2.25;;;1.30;;
51738;SDS011;37815;52.692;6.226;2023-04-15T11:43:18;3.03;;;1.17;;
51738;SDS011;37815;52.692;6.226;2023-04-15T11:48:21;3.55;;;1.20;;
51738;SDS011;37815;52.692;6.226;2023-04-15T11:53:24;4.40;;;1.55;;
51738;SDS011;37815;52.692;6.226;2023-04-15T11:58:41;2.05;;;1.08;;
51738;SDS011;37815;52.692;6.226;2023-04-15T12:03:43;4.22;;;1.60;;
51738;SDS011;37815;52.692;6.226;2023-04-15T12:13:54;2.05;;;1.27;;
51738;SDS011;37815;52.692;6.226;2023-04-15T12:18:57;4.55;;;1.20;;
51738;SDS011;37815;52.692;6.226;2023-04-15T12:24:00;2.35;;;1.45;;
51738;SDS011;37815;52.692;6.226;2023-04-15T12:29:06;3.17;;;1.40;;
51738;SDS011;37815;52.692;6.226;2023-04-15T12:34:07;3.00;;;1.33;;
51738;SDS011;37815;52.692;6.226;2023-04-15T12:39:08;3.00;;;1.30;;
51738;SDS011;37815;52.692;6.226;2023-04-15T12:44:08;4.20;;;1.45;;
51738;SDS011;37815;52.692;6.226;2023-04-15T12:49:09;1.98;;;1.35;;
51738;SDS011;37815;52.692;6.226;2023-04-15T12:54:10;2.75;;;1.80;;
51738;SDS011;37815;52.692;6.226;2023-04-15T12:59:10;4.55;;;1.60;;
51738;SDS011;37815;52.692;6.226;2023-04-15T13:04:12;5.32;;;1.92;;
51738;SDS011;37815;52.692;6.226;2023-04-15T13:09:13;5.22;;;1.45;;
51738;SDS011;37815;52.692;6.226;2023-04-15T13:14:13;5.13;;;1.60;;
51738;SDS011;37815;52.692;6.226;2023-04-15T13:19:14;4.32;;;1.50;;
51738;SDS011;37815;52.692;6.226;2023-04-15T13:24:15;4.63;;;1.08;;
51738;SDS011;37815;52.692;6.226;2023-04-15T13:29:16;3.35;;;1.42;;
51738;SDS011;37815;52.692;6.226;2023-04-15T13:34:16;7.53;;;1.70;;
51738;SDS011;37815;52.692;6.226;2023-04-15T13:39:17;4.78;;;1.90;;
51738;SDS011;37815;52.692;6.226;2023-04-15T13:44:17;3.92;;;1.27;;
51738;SDS011;37815;52.692;6.226;2023-04-15T13:49:18;4.15;;;1.15;;
51738;SDS011;37815;52.692;6.226;2023-04-15T13:54:18;4.43;;;1.50;;
51738;SDS011;37815;52.692;6.226;2023-04-15T13:59:19;5.32;;;1.90;;
51738;SDS011;37815;52.692;6.226;2023-04-15T14:04:20;2.35;;;1.10;;
51738;SDS011;37815;52.692;6.226;2023-04-15T14:09:20;3.65;;;1.15;;
51738;SDS011;37815;52.692;6.226;2023-04-15T14:14:22;5.35;;;1.23;;
51738;SDS011;37815;52.692;6.226;2023-04-15T14:19:23;4.53;;;1.50;;
51738;SDS011;37815;52.692;6.226;2023-04-15T14:24:24;6.28;;;1.58;;
51738;SDS011;37815;52.692;6.226;2023-04-15T14:29:25;5.88;;;1.20;;
51738;SDS011;37815;52.692;6.226;2023-04-15T14:34:26;3.13;;;0.80;;
51738;SDS011;37815;52.692;6.226;2023-04-15T14:39:27;3.92;;;1.00;;
51738;SDS011;37815;52.692;6.226;2023-04-15T14:44:27;2.75;;;1.27;;
51738;SDS011;37815;52.692;6.226;2023-04-15T14:49:28;2.97;;;1.20;;
51738;SDS011;37815;52.692;6.226;2023-04-15T14:54:29;1.73;;;1.08;;
51738;SDS011;37815;52.692;6.226;2023-04-15T14:59:30;2.58;;;0.90;;
51738;SDS011;37815;52.692;6.226;2023-04-15T15:04:30;1.90;;;1.05;;
51738;SDS011;37815;52.692;6.226;2023-04-15T15:09:32;7.38;;;2.15;;
51738;SDS011;37815;52.692;6.226;2023-04-15T15:14:32;9.65;;;1.75;;
51738;SDS011;37815;52.692;6.226;2023-04-15T15:19:33;6.55;;;1.63;;
51738;SDS011;37815;52.692;6.226;2023-04-15T15:24:34;6.80;;;1.50;;
51738;SDS011;37815;52.692;6.226;2023-04-15T15:29:36;4.57;;;1.30;;
51738;SDS011;37815;52.692;6.226;2023-04-15T15:34:37;4.93;;;1.30;;
51738;SDS011;37815;52.692;6.226;2023-04-15T15:39:37;5.50;;;1.55;;
51738;SDS011;37815;52.692;6.226;2023-04-15T15:44:38;6.28;;;1.50;;
51738;SDS011;37815;52.692;6.226;2023-04-15T15:49:38;5.43;;;2.05;;
51738;SDS011;37815;52.692;6.226;2023-04-15T15:54:39;3.35;;;1.23;;
51738;SDS011;37815;52.692;6.226;2023-04-15T15:59:40;3.80;;;1.77;;
51738;SDS011;37815;52.692;6.226;2023-04-15T16:04:42;2.70;;;1.15;;
51738;SDS011;37815;52.692;6.226;2023-04-15T16:09:43;4.63;;;1.30;;
51738;SDS011;37815;52.692;6.226;2023-04-15T16:14:44;3.70;;;1.13;;
51738;SDS011;37815;52.692;6.226;2023-04-15T16:19:46;3.90;;;1.10;;
51738;SDS011;37815;52.692;6.226;2023-04-15T16:24:46;2.35;;;1.20;;
51738;SDS011;37815;52.692;6.226;2023-04-15T16:29:47;3.30;;;1.05;;
51738;SDS011;37815;52.692;6.226;2023-04-15T16:34:48;2.63;;;1.13;;
51738;SDS011;37815;52.692;6.226;2023-04-15T16:39:48;3.65;;;1.00;;
51738;SDS011;37815;52.692;6.226;2023-04-15T16:44:49;2.70;;;1.20;;
51738;SDS011;37815;52.692;6.226;2023-04-15T16:49:50;4.45;;;1.13;;
51738;SDS011;37815;52.692;6.226;2023-04-15T16:54:50;2.67;;;1.15;;
51738;SDS011;37815;52.692;6.226;2023-04-15T16:59:51;4.47;;;0.85;;
51738;SDS011;37815;52.692;6.226;2023-04-15T17:04:51;5.35;;;1.17;;
51738;SDS011;37815;52.692;6.226;2023-04-15T17:09:52;4.90;;;1.17;;
51738;SDS011;37815;52.692;6.226;2023-04-15T17:14:52;3.60;;;1.10;;
51738;SDS011;37815;52.692;6.226;2023-04-15T17:19:53;2.67;;;1.13;;
51738;SDS011;37815;52.692;6.226;2023-04-15T17:24:55;2.80;;;1.23;;
51738;SDS011;37815;52.692;6.226;2023-04-15T17:29:56;3.60;;;1.02;;
51738;SDS011;37815;52.692;6.226;2023-04-15T17:34:56;2.35;;;1.08;;
51738;SDS011;37815;52.692;6.226;2023-04-15T17:39:57;4.38;;;1.10;;
51738;SDS011;37815;52.692;6.226;2023-04-15T17:44:58;4.10;;;1.17;;
51738;SDS011;37815;52.692;6.226;2023-04-15T17:49:58;3.50;;;1.00;;
51738;SDS011;37815;52.692;6.226;2023-04-15T17:54:59;2.88;;;1.13;;
51738;SDS011;37815;52.692;6.226;2023-04-15T17:59:59;2.33;;;1.00;;
51738;SDS011;37815;52.692;6.226;2023-04-15T18:05:00;1.17;;;1.08;;
51738;SDS011;37815;52.692;6.226;2023-04-15T18:10:04;3.53;;;1.30;;
51738;SDS011;37815;52.692;6.226;2023-04-15T18:15:07;1.40;;;0.90;;
51738;SDS011;37815;52.692;6.226;2023-04-15T18:20:08;2.97;;;1.23;;
51738;SDS011;37815;52.692;6.226;2023-04-15T18:25:09;2.92;;;1.00;;
51738;SDS011;37815;52.692;6.226;2023-04-15T18:30:10;1.98;;;0.90;;
51738;SDS011;37815;52.692;6.226;2023-04-15T18:35:11;3.97;;;1.30;;
51738;SDS011;37815;52.692;6.226;2023-04-15T18:40:12;2.22;;;0.85;;
51738;SDS011;37815;52.692;6.226;2023-04-15T18:45:15;4.15;;;1.10;;
51738;SDS011;37815;52.692;6.226;2023-04-15T18:50:15;3.05;;;1.05;;
51738;SDS011;37815;52.692;6.226;2023-04-15T18:55:16;4.97;;;1.50;;
51738;SDS011;37815;52.692;6.226;2023-04-15T19:00:17;1.42;;;0.90;;
51738;SDS011;37815;52.692;6.226;2023-04-15T19:05:17;3.70;;;1.02;;
51738;SDS011;37815;52.692;6.226;2023-04-15T19:10:18;6.70;;;1.10;;
51738;SDS011;37815;52.692;6.226;2023-04-15T19:15:18;1.40;;;0.95;;
51738;SDS011;37815;52.692;6.226;2023-04-15T19:20:19;2.70;;;0.82;;
51738;SDS011;37815;52.692;6.226;2023-04-15T19:25:20;3.00;;;1.10;;
51738;SDS011;37815;52.692;6.226;2023-04-15T19:30:21;2.03;;;0.90;;
51738;SDS011;37815;52.692;6.226;2023-04-15T19:35:21;2.15;;;1.10;;
51738;SDS011;37815;52.692;6.226;2023-04-15T19:40:22;2.63;;;1.02;;
51738;SDS011;37815;52.692;6.226;2023-04-15T19:45:22;1.75;;;1.10;;
51738;SDS011;37815;52.692;6.226;2023-04-15T19:50:23;4.03;;;1.10;;
51738;SDS011;37815;52.692;6.226;2023-04-15T19:55:25;4.93;;;1.10;;
51738;SDS011;37815;52.692;6.226;2023-04-15T20:00:25;3.85;;;1.40;;
51738;SDS011;37815;52.692;6.226;2023-04-15T20:05:26;2.22;;;0.98;;
51738;SDS011;37815;52.692;6.226;2023-04-15T20:10:27;3.00;;;1.05;;
51738;SDS011;37815;52.692;6.226;2023-04-15T20:15:28;3.10;;;1.17;;
51738;SDS011;37815;52.692;6.226;2023-04-15T20:20:29;3.50;;;1.38;;
51738;SDS011;37815;52.692;6.226;2023-04-15T20:25:30;4.03;;;1.52;;
51738;SDS011;37815;52.692;6.226;2023-04-15T20:30:30;2.85;;;1.15;;
51738;SDS011;37815;52.692;6.226;2023-04-15T20:35:31;5.32;;;1.70;;
51738;SDS011;37815;52.692;6.226;2023-04-15T20:40:32;4.68;;;1.30;;
51738;SDS011;37815;52.692;6.226;2023-04-15T20:45:33;5.88;;;1.80;;
51738;SDS011;37815;52.692;6.226;2023-04-15T20:50:34;1.92;;;1.00;;
51738;SDS011;37815;52.692;6.226;2023-04-15T20:55:34;3.60;;;1.42;;
51738;SDS011;37815;52.692;6.226;2023-04-15T21:00:35;4.20;;;1.42;;
51738;SDS011;37815;52.692;6.226;2023-04-15T21:05:35;2.67;;;1.23;;
51738;SDS011;37815;52.692;6.226;2023-04-15T21:10:36;5.35;;;1.33;;
51738;SDS011;37815;52.692;6.226;2023-04-15T21:15:37;3.40;;;1.00;;
51738;SDS011;37815;52.692;6.226;2023-04-15T21:20:38;2.50;;;1.50;;
51738;SDS011;37815;52.692;6.226;2023-04-15T21:25:38;3.63;;;1.48;;
51738;SDS011;37815;52.692;6.226;2023-04-15T21:30:39;5.28;;;1.20;;
51738;SDS011;37815;52.692;6.226;2023-04-15T21:35:39;3.65;;;1.52;;
51738;SDS011;37815;52.692;6.226;2023-04-15T21:40:40;5.85;;;1.50;;
51738;SDS011;37815;52.692;6.226;2023-04-15T21:45:41;5.47;;;1.50;;
51738;SDS011;37815;52.692;6.226;2023-04-15T21:50:46;4.90;;;1.50;;
51738;SDS011;37815;52.692;6.226;2023-04-15T21:55:47;6.13;;;1.73;;
51738;SDS011;37815;52.692;6.226;2023-04-15T22:00:48;4.82;;;1.50;;
51738;SDS011;37815;52.692;6.226;2023-04-15T22:05:48;6.05;;;1.80;;
51738;SDS011;37815;52.692;6.226;2023-04-15T22:10:49;6.85;;;1.92;;
51738;SDS011;37815;52.692;6.226;2023-04-15T22:15:50;5.53;;;2.17;;
51738;SDS011;37815;52.692;6.226;2023-04-15T22:20:50;4.13;;;1.63;;
51738;SDS011;37815;52.692;6.226;2023-04-15T22:25:51;3.47;;;1.85;;
51738;SDS011;37815;52.692;6.226;2023-04-15T22:30:51;5.00;;;2.15;;
51738;SDS011;37815;52.692;6.226;2023-04-15T22:35:53;7.55;;;2.17;;
51738;SDS011;37815;52.692;6.226;2023-04-15T22:40:54;5.25;;;2.22;;
51738;SDS011;37815;52.692;6.226;2023-04-15T22:45:54;5.72;;;2.10;;
51738;SDS011;37815;52.692;6.226;2023-04-15T22:50:55;7.78;;;2.22;;
51738;SDS011;37815;52.692;6.226;2023-04-15T22:55:56;8.15;;;2.60;;
51738;SDS011;37815;52.692;6.226;2023-04-15T23:00:56;6.22;;;1.75;;
51738;SDS011;37815;52.692;6.226;2023-04-15T23:05:58;6.50;;;2.90;;
51738;SDS011;37815;52.692;6.226;2023-04-15T23:10:58;7.45;;;2.40;;
51738;SDS011;37815;52.692;6.226;2023-04-15T23:15:59;6.72;;;2.28;;
51738;SDS011;37815;52.692;6.226;2023-04-15T23:21:01;7.95;;;3.22;;
51738;SDS011;37815;52.692;6.226;2023-04-15T23:26:02;11.32;;;3.25;;
51738;SDS011;37815;52.692;6.226;2023-04-15T23:31:03;5.93;;;2.40;;
51738;SDS011;37815;52.692;6.226;2023-04-15T23:36:04;9.48;;;2.90;;
51738;SDS011;37815;52.692;6.226;2023-04-15T23:41:05;4.97;;;3.08;;
51738;SDS011;37815;52.692;6.226;2023-04-15T23:46:05;6.88;;;2.80;;
51738;SDS011;37815;52.692;6.226;2023-04-15T23:51:07;8.90;;;2.78;;
51738;SDS011;37815;52.692;6.226;2023-04-15T23:56:08;7.82;;;3.40;;
